createdAt,value
2022-08-18T00:02:28.824Z,6.00
2022-08-18T00:05:10.458Z,6.50
2022-08-18T00:07:53.181Z,6.30
2022-08-18T00:10:32.780Z,6.30
2022-08-18T00:13:11.232Z,6.50
2022-08-18T00:15:50.807Z,6.40
2022-08-18T00:18:29.600Z,6.60
2022-08-18T00:21:11.322Z,6.50
2022-08-18T00:23:49.822Z,6.70
2022-08-18T00:26:36.677Z,6.80
2022-08-18T00:29:15.169Z,6.00
2022-08-18T00:31:56.282Z,5.80
2022-08-18T00:34:37.505Z,6.40
2022-08-18T00:37:19.356Z,5.80
2022-08-18T00:39:56.859Z,6.70
2022-08-18T00:42:34.462Z,6.50
2022-08-18T00:45:17.246Z,6.40
2022-08-18T00:47:54.117Z,6.90
2022-08-18T00:50:47.518Z,6.60
2022-08-18T00:53:36.746Z,6.20
2022-08-18T00:56:31.205Z,6.50
2022-08-18T00:59:17.115Z,6.30
2022-08-18T01:01:57.407Z,6.40
2022-08-18T01:04:42.224Z,6.50
2022-08-18T01:07:37.728Z,6.50
2022-08-18T01:10:18.653Z,6.50
2022-08-18T01:12:59.070Z,6.70
2022-08-18T01:15:34.717Z,6.40
2022-08-18T01:18:34.580Z,6.60
2022-08-18T01:21:53.891Z,6.50
2022-08-18T01:24:56.334Z,6.50
2022-08-18T01:27:38.030Z,6.90
2022-08-18T01:30:19.551Z,6.50
2022-08-18T01:33:02.433Z,6.90
2022-08-18T01:35:42.079Z,6.70
2022-08-18T01:38:21.876Z,6.50
2022-08-18T01:41:28.555Z,6.50
2022-08-18T01:44:06.197Z,7.00
2022-08-18T01:46:43.037Z,6.60
2022-08-18T01:49:23.582Z,6.20
2022-08-18T01:52:03.199Z,6.60
2022-08-18T01:54:37.922Z,7.20
2022-08-18T01:57:16.800Z,7.00
2022-08-18T01:59:58.695Z,6.50
2022-08-18T02:02:37.921Z,7.00
2022-08-18T02:05:25.913Z,6.20
2022-08-18T02:08:08.351Z,7.10
2022-08-18T02:10:48.250Z,6.40
2022-08-18T02:13:26.750Z,6.70
2022-08-18T02:16:08.924Z,6.00
2022-08-18T02:18:48.962Z,6.60
2022-08-18T02:21:25.886Z,6.40
2022-08-18T02:24:03.585Z,6.30
2022-08-18T02:26:42.380Z,6.00
2022-08-18T02:29:20.958Z,6.20
2022-08-18T02:31:58.932Z,6.60
2022-08-18T02:34:40.382Z,6.90
2022-08-18T02:37:18.559Z,6.50
2022-08-18T02:39:59.155Z,6.30
2022-08-18T02:42:36.811Z,6.20
2022-08-18T02:45:15.480Z,6.50
2022-08-18T02:47:58.041Z,6.50
2022-08-18T02:50:35.613Z,6.20
2022-08-18T02:53:18.784Z,6.80
2022-08-18T02:55:56.063Z,6.50
2022-08-18T02:58:34.966Z,6.20
2022-08-18T03:01:11.451Z,6.60
2022-08-18T03:03:49.267Z,6.50
2022-08-18T03:06:27.144Z,6.70
2022-08-18T03:09:07.447Z,6.60
2022-08-18T03:11:45.308Z,6.60
2022-08-18T03:14:28.118Z,6.50
2022-08-18T03:17:10.006Z,6.70
2022-08-18T03:19:48.349Z,6.20
2022-08-18T03:22:32.305Z,6.10
2022-08-18T03:25:12.899Z,6.30
2022-08-18T03:27:53.753Z,6.40
2022-08-18T03:30:35.575Z,6.40
2022-08-18T03:33:13.058Z,6.00
2022-08-18T03:35:54.587Z,6.30
2022-08-18T03:38:33.501Z,6.10
2022-08-18T03:41:18.450Z,6.00
2022-08-18T03:44:15.037Z,6.10
2022-08-18T03:46:55.233Z,6.30
2022-08-18T03:49:37.439Z,6.20
2022-08-18T03:52:18.330Z,6.60
2022-08-18T03:54:56.189Z,6.70
2022-08-18T03:57:38.945Z,5.90
2022-08-18T04:00:16.384Z,6.50
2022-08-18T04:02:53.091Z,6.80
2022-08-18T04:05:31.775Z,7.10
2022-08-18T04:08:11.590Z,7.20
2022-08-18T04:10:54.205Z,6.60
2022-08-18T04:13:33.024Z,6.70
2022-08-18T04:16:11.646Z,6.20
2022-08-18T04:18:50.334Z,6.40
2022-08-18T04:21:31.041Z,6.40
2022-08-18T04:24:09.824Z,5.70
2022-08-18T04:26:48.418Z,6.00
2022-08-18T04:29:29.746Z,6.20
2022-08-18T04:32:07.808Z,5.90
2022-08-18T04:34:47.594Z,6.40
2022-08-18T04:37:28.190Z,6.30
2022-08-18T04:40:11.215Z,6.10
2022-08-18T04:42:51.581Z,5.90
2022-08-18T04:45:35.728Z,5.30
2022-08-18T04:48:14.914Z,5.90
2022-08-18T04:50:53.848Z,6.40
2022-08-18T04:53:49.283Z,6.60
2022-08-18T04:56:31.241Z,6.60
2022-08-18T04:59:12.604Z,6.80
2022-08-18T05:01:51.263Z,6.30
2022-08-18T05:04:34.912Z,6.90
2022-08-18T05:07:19.074Z,6.70
2022-08-18T05:09:58.449Z,7.10
2022-08-18T05:12:40.025Z,7.30
2022-08-18T05:15:17.439Z,8.30
2022-08-18T05:17:57.133Z,7.20
2022-08-18T05:20:44.669Z,7.30
2022-08-18T05:23:27.366Z,7.80
2022-08-18T05:26:08.865Z,6.60
2022-08-18T05:28:48.446Z,6.50
2022-08-18T05:31:30.049Z,6.50
2022-08-18T05:34:06.884Z,6.00
2022-08-18T05:36:49.801Z,6.50
2022-08-18T05:39:29.900Z,6.50
2022-08-18T05:42:19.478Z,6.10
2022-08-18T05:44:59.193Z,6.20
2022-08-18T05:47:39.748Z,5.80
2022-08-18T05:50:25.855Z,6.30
2022-08-18T05:53:14.024Z,5.90
2022-08-18T05:56:24.364Z,6.00
2022-08-18T05:59:04.061Z,6.00
2022-08-18T06:01:47.808Z,6.20
2022-08-18T06:04:36.701Z,6.10
2022-08-18T06:07:19.892Z,6.50
2022-08-18T06:10:01.049Z,6.60
2022-08-18T06:12:47.562Z,6.40
2022-08-18T06:15:43.440Z,6.20
2022-08-18T06:18:34.677Z,6.30
2022-08-18T06:21:43.135Z,5.90
2022-08-18T06:24:33.131Z,6.30
2022-08-18T06:27:30.347Z,6.40
2022-08-18T06:30:13.790Z,5.90
2022-08-18T06:32:49.407Z,6.50
2022-08-18T06:35:31.229Z,6.00
2022-08-18T06:38:40.609Z,6.20
2022-08-18T06:44:40.448Z,6.70
2022-08-18T06:47:42.045Z,6.40
2022-08-18T06:50:29.442Z,6.80
2022-08-18T06:53:27.021Z,6.30
2022-08-18T06:56:41.499Z,6.30
2022-08-18T06:59:41.085Z,6.10
2022-08-18T07:02:31.454Z,6.80
2022-08-18T07:05:26.013Z,6.90
2022-08-18T07:08:28.414Z,6.60
2022-08-18T07:11:25.633Z,6.30
2022-08-18T07:14:27.328Z,6.00
2022-08-18T07:17:12.801Z,6.30
2022-08-18T07:19:55.229Z,6.30
2022-08-18T07:22:39.433Z,6.00
2022-08-18T07:25:28.097Z,6.10
2022-08-18T07:28:05.469Z,6.60
2022-08-18T07:31:00.205Z,6.30
2022-08-18T07:33:44.497Z,7.20
2022-08-18T07:36:23.991Z,6.40
2022-08-18T07:39:34.712Z,5.70
2022-08-18T07:42:54.522Z,6.30
2022-08-18T07:45:30.366Z,6.20
2022-08-18T07:48:37.114Z,6.60
2022-08-18T07:51:45.695Z,6.60
2022-08-18T07:54:53.009Z,6.50
2022-08-18T07:57:46.820Z,6.80
2022-08-18T08:00:57.587Z,6.60
2022-08-18T08:04:25.802Z,6.50
2022-08-18T08:07:30.253Z,6.90
2022-08-18T08:10:35.707Z,6.40
2022-08-18T08:13:53.659Z,6.80
2022-08-18T08:16:28.559Z,6.70
2022-08-18T08:19:11.236Z,6.80
2022-08-18T08:22:07.765Z,6.20
2022-08-18T08:24:50.813Z,6.30
2022-08-18T08:28:04.292Z,6.30
2022-08-18T08:31:05.218Z,6.60
2022-08-18T08:34:38.367Z,7.00
2022-08-18T08:37:20.725Z,6.70
2022-08-18T08:40:20.345Z,5.80
2022-08-18T08:43:13.477Z,6.20
2022-08-18T08:45:56.968Z,6.20
2022-08-18T08:48:37.542Z,6.30
2022-08-18T08:51:37.156Z,6.30
2022-08-18T08:54:37.361Z,5.90
2022-08-18T08:57:18.915Z,6.70
2022-08-18T08:59:56.064Z,6.20
2022-08-18T09:02:51.938Z,6.20
2022-08-18T09:05:38.053Z,6.40
2022-08-18T09:08:50.765Z,6.50
2022-08-18T09:11:28.208Z,6.80
2022-08-18T09:14:29.222Z,6.80
2022-08-18T09:17:39.683Z,6.20
2022-08-18T09:20:35.484Z,6.90
2022-08-18T09:23:20.995Z,6.60
2022-08-18T09:26:03.422Z,6.40
2022-08-18T09:28:57.949Z,6.30
2022-08-18T09:31:35.425Z,6.70
2022-08-18T09:34:37.983Z,6.70
2022-08-18T09:37:51.550Z,6.80
2022-08-18T09:41:03.817Z,6.60
2022-08-18T09:43:59.111Z,6.70
2022-08-18T09:46:45.388Z,6.70
2022-08-18T09:49:34.138Z,6.50
2022-08-18T09:52:25.399Z,6.00
2022-08-18T09:55:30.467Z,6.40
2022-08-18T09:58:42.673Z,6.50
2022-08-18T10:01:52.656Z,6.10
2022-08-18T10:04:32.580Z,6.50
2022-08-18T10:07:43.200Z,6.20
2022-08-18T10:11:01.004Z,6.20
2022-08-18T10:13:17.391Z,6.10
2022-08-18T10:16:28.199Z,6.10
2022-08-18T10:19:39.403Z,6.10
2022-08-18T10:25:46.526Z,5.80
2022-08-18T10:29:01.408Z,6.50
2022-08-18T10:32:00.398Z,5.80
2022-08-18T10:35:00.580Z,5.80
2022-08-18T10:37:53.254Z,6.20
2022-08-18T10:40:32.701Z,5.90
2022-08-18T10:43:45.214Z,5.90
2022-08-18T10:46:32.833Z,5.90
2022-08-18T10:49:14.629Z,6.10
2022-08-18T10:52:21.071Z,6.00
2022-08-18T10:55:24.428Z,5.80
2022-08-18T10:58:49.143Z,6.00
2022-08-18T11:01:43.942Z,5.50
2022-08-18T11:04:58.967Z,5.70
2022-08-18T11:07:41.121Z,6.00
2022-08-18T11:10:29.720Z,6.00
2022-08-18T11:13:27.535Z,5.20
2022-08-18T11:16:35.358Z,5.10
2022-08-18T11:19:16.996Z,5.40
2022-08-18T11:21:56.984Z,5.30
2022-08-18T11:24:42.949Z,5.20
2022-08-18T11:27:30.015Z,5.40
2022-08-18T11:30:12.163Z,5.70
2022-08-18T11:32:53.344Z,5.30
2022-08-18T11:35:35.586Z,5.10
2022-08-18T11:38:23.271Z,5.60
2022-08-18T11:41:17.209Z,5.50
2022-08-18T11:44:06.141Z,5.70
2022-08-18T11:46:52.129Z,5.70
2022-08-18T11:49:35.104Z,5.50
2022-08-18T11:52:35.070Z,5.80
2022-08-18T11:55:38.243Z,5.80
2022-08-18T11:58:45.234Z,5.50
2022-08-18T12:01:41.600Z,5.60
2022-08-18T12:04:32.849Z,6.00
2022-08-18T12:07:20.380Z,6.30
2022-08-18T12:10:29.367Z,6.40
2022-08-18T12:13:07.206Z,5.90
2022-08-18T12:15:53.761Z,5.90
2022-08-18T12:18:35.324Z,6.20
2022-08-18T12:21:14.771Z,5.60
2022-08-18T12:23:53.120Z,6.00
2022-08-18T12:29:43.368Z,5.50
2022-08-18T12:32:46.641Z,5.80
2022-08-18T12:35:22.202Z,5.70
2022-08-18T12:40:58.979Z,5.80
2022-08-18T12:43:41.908Z,6.20
2022-08-18T12:46:23.385Z,6.20
2022-08-18T12:49:07.475Z,5.90
2022-08-18T12:51:46.287Z,6.70
2022-08-18T12:54:28.387Z,6.60
2022-08-18T12:57:08.740Z,6.60
2022-08-18T12:59:45.186Z,5.90
2022-08-18T13:02:25.664Z,5.50
2022-08-18T13:05:06.048Z,6.50
2022-08-18T13:07:42.753Z,6.20
2022-08-18T13:10:42.837Z,5.90
2022-08-18T13:13:24.993Z,6.00
2022-08-18T13:16:16.612Z,6.20
2022-08-18T13:19:07.391Z,5.90
2022-08-18T13:21:47.086Z,6.40
2022-08-18T13:24:24.227Z,6.00
2022-08-18T13:27:03.647Z,6.20
2022-08-18T13:29:55.071Z,5.70
2022-08-18T13:32:38.371Z,5.70
2022-08-18T13:35:26.117Z,5.80
2022-08-18T13:38:15.711Z,6.00
2022-08-18T13:41:03.679Z,5.90
2022-08-18T13:43:48.006Z,5.90
2022-08-18T13:46:30.977Z,6.20
2022-08-18T13:49:11.038Z,5.80
2022-08-18T13:51:52.165Z,6.40
2022-08-18T13:54:31.821Z,6.50
2022-08-18T13:57:10.914Z,5.80
2022-08-18T13:59:52.365Z,6.50
2022-08-18T14:02:28.590Z,6.40
2022-08-18T14:05:11.201Z,6.90
2022-08-18T14:07:47.426Z,6.30
2022-08-18T14:10:29.832Z,6.80
2022-08-18T14:13:20.925Z,5.80
2022-08-18T14:16:03.592Z,5.80
2022-08-18T14:18:40.913Z,6.20
2022-08-18T14:21:41.278Z,6.20
2022-08-18T14:24:38.464Z,5.70
2022-08-18T14:27:17.034Z,6.20
2022-08-18T14:29:57.438Z,6.10
2022-08-18T14:32:36.831Z,6.20
2022-08-18T14:35:33.573Z,6.20
2022-08-18T14:38:23.151Z,6.30
2022-08-18T14:41:03.102Z,6.30
2022-08-18T14:44:10.341Z,5.50
2022-08-18T14:46:36.894Z,5.60
2022-08-18T14:49:29.184Z,5.70
2022-08-18T14:52:13.999Z,5.90
2022-08-18T14:54:51.387Z,5.90
2022-08-18T14:57:30.432Z,6.20
2022-08-18T15:00:22.724Z,6.00
2022-08-18T15:03:00.179Z,6.20
2022-08-18T15:05:40.892Z,6.00
2022-08-18T15:08:17.473Z,5.90
2022-08-18T15:10:59.602Z,6.50
2022-08-18T15:13:40.469Z,5.60
2022-08-18T15:16:20.901Z,6.10
2022-08-18T15:19:59.468Z,6.80
2022-08-18T15:22:20.481Z,6.20
2022-08-18T15:25:21.282Z,5.90
2022-08-18T15:28:06.996Z,6.10
2022-08-18T15:33:52.553Z,6.00
2022-08-18T15:36:31.030Z,6.20
2022-08-18T15:39:13.315Z,6.20
2022-08-18T15:44:29.672Z,5.80
2022-08-18T15:47:10.592Z,6.30
2022-08-18T15:49:50.095Z,6.20
2022-08-18T15:52:27.886Z,6.80
2022-08-18T15:55:08.976Z,6.50
2022-08-18T15:57:58.017Z,6.20
2022-08-18T16:00:39.779Z,6.30
2022-08-18T16:03:20.223Z,7.10
2022-08-18T16:05:57.661Z,6.50
2022-08-18T16:08:36.126Z,5.90
2022-08-18T16:11:28.942Z,6.30
2022-08-18T16:14:12.094Z,6.70
2022-08-18T16:16:46.649Z,5.70
2022-08-18T16:19:25.743Z,6.00
2022-08-18T16:22:10.546Z,5.70
2022-08-18T16:24:50.217Z,6.40
2022-08-18T16:27:35.589Z,6.20
2022-08-18T16:30:16.064Z,5.90
2022-08-18T16:32:56.917Z,6.00
2022-08-18T16:38:13.509Z,6.50
2022-08-18T16:43:35.605Z,5.80
2022-08-18T16:46:18.909Z,6.00
2022-08-18T16:49:00.607Z,6.30
2022-08-18T16:51:39.904Z,6.10
2022-08-18T16:54:17.407Z,5.80
2022-08-18T16:56:55.934Z,5.90
2022-08-18T16:59:52.627Z,8.20
2022-08-18T17:02:50.128Z,6.70
2022-08-18T17:05:31.098Z,6.10
2022-08-18T17:08:10.077Z,6.50
2022-08-18T17:10:48.850Z,6.60
2022-08-18T17:13:26.353Z,7.90
2022-08-18T17:16:07.822Z,7.60
2022-08-18T17:18:47.243Z,8.10
2022-08-18T17:21:27.800Z,8.10
2022-08-18T17:24:04.092Z,8.70
2022-08-18T17:26:58.965Z,9.10
2022-08-18T17:30:04.167Z,7.20
2022-08-18T17:32:45.234Z,6.80
2022-08-18T17:35:49.492Z,6.70
2022-08-18T17:38:46.668Z,6.40
2022-08-18T17:41:29.789Z,7.30
2022-08-18T17:44:11.432Z,7.20
2022-08-18T17:46:48.894Z,7.00
2022-08-18T17:50:27.456Z,7.00
2022-08-18T17:53:00.191Z,6.70
2022-08-18T17:55:47.837Z,7.00
2022-08-18T17:58:37.245Z,7.10
2022-08-18T18:01:17.450Z,7.00
2022-08-18T18:04:01.004Z,7.60
2022-08-18T18:06:37.812Z,7.00
2022-08-18T18:09:21.856Z,7.60
2022-08-18T18:12:03.397Z,7.80
2022-08-18T18:14:41.133Z,7.00
2022-08-18T18:17:32.342Z,7.50
2022-08-18T18:20:43.289Z,7.30
2022-08-18T18:23:21.024Z,7.20
2022-08-18T18:26:03.358Z,7.20
2022-08-18T18:28:41.951Z,7.20
2022-08-18T18:31:37.595Z,7.60
2022-08-18T18:34:28.009Z,7.30
2022-08-18T18:37:06.065Z,8.00
2022-08-18T18:39:47.512Z,7.60
2022-08-18T18:42:32.038Z,7.60
2022-08-18T18:45:22.652Z,7.70
2022-08-18T18:48:51.122Z,7.70
2022-08-18T18:51:33.666Z,7.50
2022-08-18T18:54:30.687Z,8.00
2022-08-18T18:57:13.375Z,7.80
2022-08-18T19:00:15.473Z,7.90
2022-08-18T19:03:16.861Z,7.90
2022-08-18T19:06:03.748Z,7.40
2022-08-18T19:08:57.461Z,8.20
2022-08-18T19:12:00.923Z,7.70
2022-08-18T19:15:00.049Z,8.50
2022-08-18T19:17:47.998Z,7.90
2022-08-18T19:20:33.551Z,8.00
2022-08-18T19:23:44.954Z,7.50
2022-08-18T19:26:29.809Z,8.40
2022-08-18T19:29:13.252Z,8.40
2022-08-18T19:32:17.056Z,7.40
2022-08-18T19:34:55.964Z,7.40
2022-08-18T19:37:41.374Z,8.40
2022-08-18T19:40:24.295Z,8.30
2022-08-18T19:43:36.831Z,7.40
2022-08-18T19:46:23.709Z,7.50
2022-08-18T19:49:27.885Z,7.40
2022-08-18T19:52:45.894Z,7.60
2022-08-18T19:55:48.349Z,7.20
2022-08-18T20:02:02.602Z,7.40
2022-08-18T20:04:51.037Z,7.40
2022-08-18T20:07:47.207Z,7.60
2022-08-18T20:11:02.493Z,8.20
2022-08-18T20:13:44.341Z,7.80
2022-08-18T20:16:43.803Z,7.00
2022-08-18T20:19:58.047Z,8.10
2022-08-18T20:22:48.350Z,8.10
2022-08-18T20:25:30.425Z,7.70
2022-08-18T20:28:10.459Z,7.50
2022-08-18T20:31:18.001Z,7.20
2022-08-18T20:34:15.070Z,8.00
2022-08-18T20:36:54.718Z,7.80
2022-08-18T20:39:45.477Z,7.20
2022-08-18T20:42:30.540Z,7.30
2022-08-18T20:45:22.849Z,8.00
2022-08-18T20:48:22.785Z,7.80
2022-08-18T20:51:18.236Z,7.40
2022-08-18T20:54:13.391Z,7.00
2022-08-18T20:57:14.717Z,7.00
2022-08-18T20:59:56.664Z,7.40
2022-08-18T21:02:41.119Z,7.30
2022-08-18T21:05:35.004Z,7.10
2022-08-18T21:08:18.912Z,7.40
2022-08-18T21:11:07.062Z,7.00
2022-08-18T21:13:43.812Z,7.60
2022-08-18T21:16:39.224Z,7.00
2022-08-18T21:19:23.266Z,8.10
2022-08-18T21:22:07.095Z,6.80
2022-08-18T21:24:47.614Z,7.50
2022-08-18T21:27:31.356Z,7.10
2022-08-18T21:30:10.977Z,7.40
2022-08-18T21:32:49.632Z,7.70
2022-08-18T21:35:35.578Z,7.10
2022-08-18T21:38:14.059Z,7.40
2022-08-18T21:40:52.642Z,7.00
2022-08-18T21:43:49.643Z,7.50
2022-08-18T21:46:31.005Z,7.80
2022-08-18T21:49:11.798Z,7.30
2022-08-18T21:51:52.382Z,7.50
2022-08-18T21:54:34.315Z,7.50
2022-08-18T21:57:26.781Z,7.80
2022-08-18T22:00:22.525Z,7.60
2022-08-18T22:03:14.998Z,8.00
2022-08-18T22:06:25.504Z,7.70
2022-08-18T22:09:26.917Z,7.30
2022-08-18T22:12:54.782Z,7.70
2022-08-18T22:15:30.334Z,7.70
2022-08-18T22:18:11.115Z,7.90
2022-08-18T22:20:53.726Z,7.50
2022-08-18T22:24:03.984Z,8.10
2022-08-18T22:26:43.264Z,7.90
2022-08-18T22:29:36.029Z,7.60
2022-08-18T22:32:23.645Z,7.40
2022-08-18T22:35:02.541Z,7.90
2022-08-18T22:37:50.801Z,8.40
2022-08-18T22:40:29.828Z,7.70
2022-08-18T22:43:06.500Z,7.80
2022-08-18T22:45:51.209Z,7.50
2022-08-18T22:48:30.813Z,7.20
2022-08-18T22:51:07.390Z,7.20
2022-08-18T22:53:52.223Z,7.10
2022-08-18T22:56:34.995Z,7.20
2022-08-18T22:59:17.369Z,8.10
2022-08-18T23:01:54.272Z,7.70
2022-08-18T23:04:35.157Z,7.60
2022-08-18T23:07:13.758Z,8.00
2022-08-18T23:09:50.460Z,8.20
2022-08-18T23:12:28.124Z,7.90
2022-08-18T23:15:10.408Z,7.80
2022-08-18T23:17:48.670Z,8.10
2022-08-18T23:20:26.846Z,6.80
2022-08-18T23:23:02.973Z,7.60
2022-08-18T23:25:43.676Z,8.10
2022-08-18T23:28:23.515Z,7.80
2022-08-18T23:31:00.157Z,8.00
2022-08-18T23:33:41.952Z,8.10
2022-08-18T23:36:20.511Z,8.00
2022-08-18T23:39:04.418Z,8.10
2022-08-18T23:41:40.958Z,7.90
2022-08-18T23:44:19.858Z,8.40
2022-08-18T23:46:56.481Z,8.40
2022-08-18T23:49:36.466Z,7.90
2022-08-18T23:52:13.919Z,8.50
2022-08-18T23:54:54.483Z,8.10
2022-08-18T23:57:30.604Z,8.20
